Rayville, Missouri
Current Conditions -  °F | °C
As of 3:15 AM on Sunday 25 Jan 2015 (Local Time) from KGPH Reporting Station
Clear Clear  
Wind Chill: 40°   Ceiling: Unl
Heat Index: 45°   Visibility: 10mi
Dew Point: 41°   Wind: 9mph
Humidity: 87%   Direction: 270°W
Pressure: 29.63"   Gusts: NA
Location:  39.35°N, 94.06°W
Report Text: KGPH 250915Z AUTO 27008KT 10SM CLR 07/05 A2963 RMK AO2
Loading
Personal Weather Stations






























Interactive Weather Map New forecast layout! Learn more

10-Day Weather Forecast

Advertisements
Track Severe Weather on mobile